Lefkes — 3EOZ7 — position and weather

sailwx.info

Track history (hours):
 
Tides and Currents Weather Stations Pressure Air Temp Water Temp Dewpoint Dewpoint Depression Visibility Wind Speed Wind Dir Waves Ship Positions

Lefkes

Last reported at 2017-Sep-14 17:11 UTC. Time now 2017-Nov-22 01:44 UTC.
Position N 29°21' W 094°47'.
Warning: this ship's position is months out of date.

Length 179 m; draft 10.7 m.

Type: Cargo ship. MMSI: 354868000.

Date/timePositionNaut miles runAvg speedWind from/ knotsBaromVisibWave heightAir tempDewpointWater temp
2017-Sep-14 17:11N 29°21' W 094°47'212.8
2017-Sep-14 17:00N 29°23' W 094°49'611.7
2017-Sep-14 16:30N 29°28' W 094°51'511.3
2017-Sep-14 16:01N 29°33' W 094°55'510.9
2017-Sep-14 15:31N 29°38' W 094°58'5 9.3
2017-Sep-14 15:01N 29°42' W 095°00'4 7.1
2017-Sep-14 14:31N 29°44' W 095°03'3 5.4
2017-Sep-14 14:01N 29°44' W 095°07'3 5.9
2017-Sep-14 13:31N 29°45' W 095°10'3 5.7
2017-Sep-14 13:00N 29°43' W 095°13'1 2.4
2017-Sep-14 12:28N 29°43' W 095°14'0 0.0
2017-Sep-14 11:55N 29°43' W 095°14'0 0.0
2017-Sep-14 11:22N 29°43' W 095°14'0 0.0
2017-Sep-14 10:46N 29°43' W 095°14'0 0.0
2017-Sep-14 09:52N 29°43' W 095°14'0 0.0
2017-Sep-14 09:28N 29°43' W 095°14'0 0.0
2017-Sep-14 08:40N 29°43' W 095°14'0 0.0
2017-Sep-14 08:28N 29°43' W 095°14'0 0.0
2017-Sep-14 07:52N 29°43' W 095°14'  
2017-Sep-11 18:16N 29°43' W 095°14'0 0.0
2017-Sep-11 17:58N 29°43' W 095°14'0 0.0
2017-Sep-10 23:28N 29°43' W 095°14'0 0.0
2017-Sep-10 22:46N 29°43' W 095°14'0 0.0
2017-Sep-10 22:19N 29°43' W 095°14'0 0.0
2017-Sep-10 21:55N 29°43' W 095°14'0 0.0
2017-Sep-10 21:28N 29°43' W 095°14'0 0.0
2017-Sep-09 17:38N 29°43' W 095°14'0 0.3
2017-Sep-09 17:30N 29°43' W 095°14'2 4.2
2017-Sep-09 17:00N 29°44' W 095°12'4 7.4
2017-Sep-09 16:30N 29°44' W 095°08'4 7.1
2017-Sep-09 15:58N 29°44' W 095°04'4 9.5
2017-Sep-09 15:30N 29°42' W 094°60'713.1
2017-Sep-09 15:00N 29°36' W 094°57'713.3
2017-Sep-09 14:30N 29°30' W 094°52'714.1
2017-Sep-09 14:00N 29°24' W 094°49'3 0.1
2017-Sep-07 16:38N 29°21' W 094°47'213.6
2017-Sep-07 16:30N 29°23' W 094°48'713.2
2017-Sep-07 16:00N 29°29' W 094°51'612.8
2017-Sep-07 15:30N 29°34' W 094°55'612.7
2017-Sep-07 15:00N 29°40' W 094°58'5 9.5
2017-Sep-07 14:30N 29°44' W 095°02'4 7.6
2017-Sep-07 14:00N 29°46' W 095°05'3 6.2
2017-Sep-07 13:30N 29°44' W 095°09'3 5.6
2017-Sep-07 12:59N 29°44' W 095°12'2 5.1
2017-Sep-07 12:30N 29°43' W 095°14'0 0.1
2017-Sep-07 10:45N 29°43' W 095°14'0 0.0
2017-Sep-07 10:21N 29°43' W 095°14'0 0.0
2017-Sep-07 09:51N 29°43' W 095°14'0 0.0
2017-Sep-07 09:30N 29°43' W 095°14'0 0.0
2017-Sep-07 08:51N 29°43' W 095°14'0 0.0
2017-Sep-07 08:27N 29°43' W 095°14'0 0.0
2017-Sep-07 07:57N 29°43' W 095°14'0 0.0
2017-Sep-07 07:21N 29°43' W 095°14'0 0.0
2017-Sep-07 07:00N 29°43' W 095°14'0 0.0
2017-Sep-07 06:27N 29°43' W 095°14'0 0.0
2017-Sep-06 22:12N 29°43' W 095°14'0 0.0
2017-Sep-06 21:48N 29°43' W 095°14'0 0.0
2017-Sep-06 20:18N 29°43' W 095°14'0 0.0
2017-Sep-06 19:54N 29°43' W 095°14'0 0.0
2017-Sep-06 18:24N 29°43' W 095°14'0 0.0
2017-Sep-06 13:42N 29°43' W 095°14'0 0.0
2017-Sep-06 13:21N 29°43' W 095°14'0 0.0
2017-Sep-06 13:00N 29°43' W 095°14'0 0.0
2017-Sep-06 09:45N 29°43' W 095°14'0 0.0
2017-Sep-06 09:30N 29°43' W 095°14'0 0.0
2017-Sep-06 08:48N 29°43' W 095°14'0 0.0
2017-Sep-06 08:18N 29°43' W 095°14'0 0.0
2017-Sep-06 08:00N 29°43' W 095°14'0 0.0
2017-Sep-06 07:24N 29°43' W 095°14'0 0.3
2017-Sep-06 07:01N 29°43' W 095°14'2 4.3
2017-Sep-06 06:31N 29°44' W 095°12'3 5.3
2017-Sep-06 06:01N 29°44' W 095°09'3 6.4
2017-Sep-06 05:30N 29°45' W 095°06'3 5.9
2017-Sep-06 05:01N 29°44' W 095°03'4 8.1
2017-Sep-06 04:31N 29°41' W 094°59'510.8
2017-Sep-06 04:00N 29°36' W 094°57'611.2
2017-Sep-06 03:30N 29°31' W 094°53'510.8
2017-Sep-06 03:00N 29°27' W 094°50'510.3
2017-Sep-06 02:30N 29°22' W 094°48'  
Track history (hours):
 
Tides and Currents Weather Stations Pressure Air Temp Water Temp Dewpoint Dewpoint Depression Visibility Wind Speed Wind Dir Waves Ship Positions

Lefkes

Last reported at 2017-Sep-14 17:11 UTC. Time now 2017-Nov-22 01:44 UTC.
Position N 29°21' W 094°47'.
Warning: this ship's position is months out of date.

Length 179 m; draft 10.7 m.

Type: Cargo ship. MMSI: 354868000.

Date/timePositionNaut miles runAvg speedWind from/ knotsBaromVisibWave heightAir tempDewpointWater temp
2017-Sep-14 17:11N 29°21' W 094°47'212.8
2017-Sep-14 17:00N 29°23' W 094°49'611.7
2017-Sep-14 16:30N 29°28' W 094°51'511.3
2017-Sep-14 16:01N 29°33' W 094°55'510.9
2017-Sep-14 15:31N 29°38' W 094°58'5 9.3
2017-Sep-14 15:01N 29°42' W 095°00'4 7.1
2017-Sep-14 14:31N 29°44' W 095°03'3 5.4
2017-Sep-14 14:01N 29°44' W 095°07'3 5.9
2017-Sep-14 13:31N 29°45' W 095°10'3 5.7
2017-Sep-14 13:00N 29°43' W 095°13'1 2.4
2017-Sep-14 12:28N 29°43' W 095°14'0 0.0
2017-Sep-14 11:55N 29°43' W 095°14'0 0.0
2017-Sep-14 11:22N 29°43' W 095°14'0 0.0
2017-Sep-14 10:46N 29°43' W 095°14'0 0.0
2017-Sep-14 09:52N 29°43' W 095°14'0 0.0
2017-Sep-14 09:28N 29°43' W 095°14'0 0.0
2017-Sep-14 08:40N 29°43' W 095°14'0 0.0
2017-Sep-14 08:28N 29°43' W 095°14'0 0.0
2017-Sep-14 07:52N 29°43' W 095°14'  
2017-Sep-11 18:16N 29°43' W 095°14'0 0.0
2017-Sep-11 17:58N 29°43' W 095°14'0 0.0
2017-Sep-10 23:28N 29°43' W 095°14'0 0.0
2017-Sep-10 22:46N 29°43' W 095°14'0 0.0
2017-Sep-10 22:19N 29°43' W 095°14'0 0.0
2017-Sep-10 21:55N 29°43' W 095°14'0 0.0
2017-Sep-10 21:28N 29°43' W 095°14'0 0.0
2017-Sep-09 17:38N 29°43' W 095°14'0 0.3
2017-Sep-09 17:30N 29°43' W 095°14'2 4.2
2017-Sep-09 17:00N 29°44' W 095°12'4 7.4
2017-Sep-09 16:30N 29°44' W 095°08'4 7.1
2017-Sep-09 15:58N 29°44' W 095°04'4 9.5
2017-Sep-09 15:30N 29°42' W 094°60'713.1
2017-Sep-09 15:00N 29°36' W 094°57'713.3
2017-Sep-09 14:30N 29°30' W 094°52'714.1
2017-Sep-09 14:00N 29°24' W 094°49'3 0.1
2017-Sep-07 16:38N 29°21' W 094°47'213.6
2017-Sep-07 16:30N 29°23' W 094°48'713.2
2017-Sep-07 16:00N 29°29' W 094°51'612.8
2017-Sep-07 15:30N 29°34' W 094°55'612.7
2017-Sep-07 15:00N 29°40' W 094°58'5 9.5
2017-Sep-07 14:30N 29°44' W 095°02'4 7.6
2017-Sep-07 14:00N 29°46' W 095°05'3 6.2
2017-Sep-07 13:30N 29°44' W 095°09'3 5.6
2017-Sep-07 12:59N 29°44' W 095°12'2 5.1
2017-Sep-07 12:30N 29°43' W 095°14'0 0.1
2017-Sep-07 10:45N 29°43' W 095°14'0 0.0
2017-Sep-07 10:21N 29°43' W 095°14'0 0.0
2017-Sep-07 09:51N 29°43' W 095°14'0 0.0
2017-Sep-07 09:30N 29°43' W 095°14'0 0.0
2017-Sep-07 08:51N 29°43' W 095°14'0 0.0
2017-Sep-07 08:27N 29°43' W 095°14'0 0.0
2017-Sep-07 07:57N 29°43' W 095°14'0 0.0
2017-Sep-07 07:21N 29°43' W 095°14'0 0.0
2017-Sep-07 07:00N 29°43' W 095°14'0 0.0
2017-Sep-07 06:27N 29°43' W 095°14'0 0.0
2017-Sep-06 22:12N 29°43' W 095°14'0 0.0
2017-Sep-06 21:48N 29°43' W 095°14'0 0.0
2017-Sep-06 20:18N 29°43' W 095°14'0 0.0
2017-Sep-06 19:54N 29°43' W 095°14'0 0.0
2017-Sep-06 18:24N 29°43' W 095°14'0 0.0
2017-Sep-06 13:42N 29°43' W 095°14'0 0.0
2017-Sep-06 13:21N 29°43' W 095°14'0 0.0
2017-Sep-06 13:00N 29°43' W 095°14'0 0.0
2017-Sep-06 09:45N 29°43' W 095°14'0 0.0
2017-Sep-06 09:30N 29°43' W 095°14'0 0.0
2017-Sep-06 08:48N 29°43' W 095°14'0 0.0
2017-Sep-06 08:18N 29°43' W 095°14'0 0.0
2017-Sep-06 08:00N 29°43' W 095°14'0 0.0
2017-Sep-06 07:24N 29°43' W 095°14'0 0.3
2017-Sep-06 07:01N 29°43' W 095°14'2 4.3
2017-Sep-06 06:31N 29°44' W 095°12'3 5.3
2017-Sep-06 06:01N 29°44' W 095°09'3 6.4
2017-Sep-06 05:30N 29°45' W 095°06'3 5.9
2017-Sep-06 05:01N 29°44' W 095°03'4 8.1
2017-Sep-06 04:31N 29°41' W 094°59'510.8
2017-Sep-06 04:00N 29°36' W 094°57'611.2
2017-Sep-06 03:30N 29°31' W 094°53'510.8
2017-Sep-06 03:00N 29°27' W 094°50'510.3
2017-Sep-06 02:30N 29°22' W 094°48'  

Dump ship's entire track history